createdAt,value
2023-01-01T00:01:32.351Z,12.58
2023-01-01T00:04:04.298Z,12.61
2023-01-01T00:06:35.987Z,12.66
2023-01-01T00:09:07.803Z,12.79
2023-01-01T00:11:39.919Z,12.99
2023-01-01T00:14:12.685Z,13.18
2023-01-01T00:16:44.522Z,13.09
2023-01-01T00:19:16.350Z,13.02
2023-01-01T00:21:47.948Z,13.33
2023-01-01T00:24:19.710Z,13.30
2023-01-01T00:26:51.436Z,13.60
2023-01-01T00:29:24.166Z,13.64
2023-01-01T00:31:55.978Z,13.20
2023-01-01T00:34:27.615Z,12.91
2023-01-01T00:36:59.209Z,13.19
2023-01-01T00:39:30.833Z,13.08
2023-01-01T00:42:02.491Z,12.69
2023-01-01T00:44:34.101Z,12.53
2023-01-01T00:47:06.066Z,12.64
2023-01-01T00:49:37.693Z,12.51
2023-01-01T00:52:09.334Z,12.91
2023-01-01T00:54:40.939Z,12.81
2023-01-01T00:57:12.496Z,12.43
2023-01-01T00:59:44.309Z,12.56
2023-01-01T01:02:16.357Z,12.69
2023-01-01T01:04:48.391Z,12.61
2023-01-01T01:07:20.100Z,12.52
2023-01-01T01:09:51.696Z,12.67
2023-01-01T01:12:23.367Z,12.83
2023-01-01T01:14:55.076Z,12.63
2023-01-01T01:17:26.863Z,12.29
2023-01-01T01:19:58.599Z,12.48
2023-01-01T01:22:30.201Z,12.31
2023-01-01T01:25:01.983Z,12.47
2023-01-01T01:27:33.566Z,12.36
2023-01-01T01:30:06.041Z,12.25
2023-01-01T01:32:37.687Z,12.01
2023-01-01T01:35:10.370Z,11.93
2023-01-01T01:37:42.037Z,11.81
2023-01-01T01:40:13.983Z,12.08
2023-01-01T01:42:47.811Z,12.02
2023-01-01T01:45:19.624Z,12.33
2023-01-01T01:47:59.724Z,12.12
2023-01-01T01:50:31.380Z,12.24
2023-01-01T01:53:35.545Z,12.17
2023-01-01T01:56:13.308Z,12.31
2023-01-01T01:58:45.362Z,12.23
2023-01-01T02:01:17.377Z,12.31
2023-01-01T02:03:58.817Z,12.18
2023-01-01T02:06:32.398Z,12.00
2023-01-01T02:09:06.726Z,12.05
2023-01-01T02:11:38.299Z,12.13
2023-01-01T02:14:10.342Z,12.09
2023-01-01T02:16:57.756Z,12.13
2023-01-01T02:19:48.135Z,12.34
2023-01-01T02:23:02.200Z,12.26
2023-01-01T02:25:41.696Z,12.27
2023-01-01T02:28:31.229Z,12.43
2023-01-01T02:31:05.054Z,12.21
2023-01-01T02:33:37.539Z,12.32
2023-01-01T02:36:19.014Z,12.49
2023-01-01T02:38:55.907Z,12.52
2023-01-01T02:41:35.166Z,12.36
2023-01-01T02:46:37.548Z,12.34
2023-01-01T02:49:11.568Z,12.48
2023-01-01T02:52:09.269Z,12.27
2023-01-01T02:54:52.971Z,12.49
2023-01-01T02:57:39.673Z,12.33
2023-01-01T03:00:18.081Z,12.24
2023-01-01T03:03:11.638Z,11.99
2023-01-01T03:06:02.036Z,12.13
2023-01-01T03:09:06.068Z,11.95
2023-01-01T03:11:55.887Z,12.02
2023-01-01T03:14:38.026Z,12.01
2023-01-01T03:17:21.837Z,11.98
2023-01-01T03:19:58.714Z,11.92
2023-01-01T03:25:11.453Z,12.00
2023-01-01T03:27:59.020Z,12.04
2023-01-01T03:30:36.232Z,12.15
2023-01-01T03:33:34.617Z,12.14
2023-01-01T03:36:19.478Z,12.18
2023-01-01T03:38:58.525Z,12.20
2023-01-01T03:41:44.692Z,12.14
2023-01-01T03:44:44.287Z,12.27
2023-01-01T03:47:17.072Z,12.15
2023-01-01T03:49:49.289Z,12.19
2023-01-01T03:52:36.083Z,12.23
2023-01-01T03:55:13.863Z,12.19
2023-01-01T03:57:45.493Z,12.33
2023-01-01T04:00:21.675Z,12.31
2023-01-01T04:03:01.896Z,12.49
2023-01-01T04:05:39.524Z,12.36
2023-01-01T04:08:14.719Z,12.06
2023-01-01T04:10:56.567Z,12.33
2023-01-01T04:13:48.094Z,12.34
2023-01-01T04:16:19.972Z,12.32
2023-01-01T04:18:51.654Z,12.32
2023-01-01T04:21:23.258Z,12.13
2023-01-01T04:23:54.957Z,12.20
2023-01-01T04:26:26.904Z,12.21
2023-01-01T04:28:58.497Z,12.19
2023-01-01T04:31:30.216Z,12.21
2023-01-01T04:34:02.090Z,12.07
2023-01-01T04:36:34.290Z,12.11
2023-01-01T04:39:06.437Z,12.19
2023-01-01T04:41:38.148Z,12.13
2023-01-01T04:44:09.781Z,12.16
2023-01-01T04:46:41.594Z,12.21
2023-01-01T04:49:13.277Z,12.31
2023-01-01T04:51:45.048Z,12.92
2023-01-01T04:54:16.649Z,12.42
2023-01-01T04:56:48.345Z,12.43
2023-01-01T04:59:20.017Z,12.64
2023-01-01T05:01:52.204Z,12.73
2023-01-01T05:04:24.221Z,12.20
2023-01-01T05:06:55.881Z,12.93
2023-01-01T05:09:27.532Z,13.06
2023-01-01T05:11:59.094Z,12.77
2023-01-01T05:14:31.363Z,12.54
2023-01-01T05:17:02.986Z,12.60
2023-01-01T05:19:34.596Z,12.36
2023-01-01T05:22:10.697Z,12.15
2023-01-01T05:24:42.789Z,12.24
2023-01-01T05:27:14.374Z,12.28
2023-01-01T05:29:45.965Z,12.07
2023-01-01T05:34:48.704Z,12.40
2023-01-01T05:37:20.251Z,12.53
2023-01-01T05:39:51.827Z,12.33
2023-01-01T05:42:23.467Z,12.66
2023-01-01T05:44:55.028Z,13.05
2023-01-01T05:47:29.924Z,12.51
2023-01-01T05:52:33.376Z,12.05
2023-01-01T05:55:05.353Z,12.15
2023-01-01T05:57:36.917Z,12.13
2023-01-01T06:00:09.088Z,12.02
2023-01-01T06:02:40.949Z,12.16
2023-01-01T06:05:12.539Z,12.19
2023-01-01T06:07:48.421Z,12.15
2023-01-01T06:10:20.683Z,12.21
2023-01-01T06:12:52.331Z,12.15
2023-01-01T06:15:23.954Z,12.15
2023-01-01T06:17:55.715Z,11.99
2023-01-01T06:20:27.429Z,11.85
2023-01-01T06:22:59.144Z,11.86
2023-01-01T06:25:30.768Z,11.76
2023-01-01T06:28:02.421Z,12.11
2023-01-01T06:30:34.173Z,12.02
2023-01-01T06:33:05.908Z,12.17
2023-01-01T06:35:37.445Z,12.01
2023-01-01T06:38:09.075Z,12.03
2023-01-01T06:40:40.692Z,12.12
2023-01-01T06:43:12.285Z,11.77
2023-01-01T06:45:43.832Z,12.24
2023-01-01T06:48:15.626Z,11.99
2023-01-01T06:50:47.196Z,11.98
2023-01-01T06:53:18.871Z,11.86
2023-01-01T06:55:53.394Z,11.85
2023-01-01T06:58:28.853Z,12.06
2023-01-01T07:01:11.966Z,11.98
2023-01-01T07:03:45.423Z,11.98
2023-01-01T07:06:17.094Z,11.94
2023-01-01T07:08:49.740Z,12.05
2023-01-01T07:11:22.311Z,12.07
2023-01-01T07:13:54.686Z,11.95
2023-01-01T07:16:27.301Z,12.01
2023-01-01T07:18:58.953Z,11.98
2023-01-01T07:21:54.661Z,12.05
2023-01-01T07:24:26.299Z,12.14
2023-01-01T07:26:57.875Z,12.03
2023-01-01T07:29:29.499Z,11.84
2023-01-01T07:32:01.005Z,11.81
2023-01-01T07:34:32.626Z,11.86
2023-01-01T07:37:05.002Z,11.82
2023-01-01T07:39:36.660Z,12.13
2023-01-01T07:42:11.042Z,12.06
2023-01-01T07:44:42.921Z,12.34
2023-01-01T07:47:22.564Z,13.98
2023-01-01T07:49:54.366Z,14.75
2023-01-01T07:52:25.949Z,15.13
2023-01-01T07:54:58.853Z,13.15
2023-01-01T07:57:30.483Z,13.07
2023-01-01T08:00:02.256Z,13.31
2023-01-01T08:02:45.065Z,13.26
2023-01-01T08:05:22.613Z,13.31
2023-01-01T08:07:57.838Z,12.91
2023-01-01T08:10:29.490Z,12.84
2023-01-01T08:13:02.287Z,13.16
2023-01-01T08:15:34.607Z,13.61
2023-01-01T08:18:06.482Z,13.13
2023-01-01T08:20:38.066Z,13.18
2023-01-01T08:23:09.885Z,13.21
2023-01-01T08:25:41.554Z,12.78
2023-01-01T08:28:13.319Z,12.54
2023-01-01T08:30:45.008Z,13.00
2023-01-01T08:33:16.711Z,12.70
2023-01-01T08:35:54.001Z,12.83
2023-01-01T08:38:27.243Z,12.60
2023-01-01T08:40:59.041Z,13.01
2023-01-01T08:43:30.648Z,12.68
2023-01-01T08:46:02.283Z,12.78
2023-01-01T08:48:34.130Z,13.17
2023-01-01T08:51:06.013Z,13.46
2023-01-01T08:53:37.728Z,13.88
2023-01-01T08:56:11.624Z,13.87
2023-01-01T08:58:43.571Z,13.91
2023-01-01T09:01:15.711Z,14.21
2023-01-01T09:03:49.620Z,15.11
2023-01-01T09:06:21.351Z,16.07
2023-01-01T09:08:53.121Z,16.13
2023-01-01T09:11:27.561Z,18.00
2023-01-01T09:13:59.225Z,18.11
2023-01-01T09:16:30.859Z,19.14
2023-01-01T09:19:02.669Z,19.49
2023-01-01T09:21:34.988Z,18.62
2023-01-01T09:24:07.050Z,19.09
2023-01-01T09:26:38.891Z,20.72
2023-01-01T09:29:10.496Z,20.31
2023-01-01T09:31:42.226Z,20.71
2023-01-01T09:38:33.846Z,21.71
2023-01-01T09:41:22.793Z,21.52
2023-01-01T09:44:14.734Z,20.72
2023-01-01T09:46:46.807Z,22.07
2023-01-01T09:49:35.588Z,20.68
2023-01-01T09:52:14.508Z,22.77
2023-01-01T09:54:59.860Z,19.97
2023-01-01T09:57:32.495Z,18.91
2023-01-01T10:00:15.391Z,20.11
2023-01-01T10:02:56.085Z,21.16
2023-01-01T10:05:34.558Z,20.86
2023-01-01T10:08:23.824Z,22.68
2023-01-01T10:10:58.519Z,22.75
2023-01-01T10:13:48.084Z,24.08
2023-01-01T10:16:28.530Z,21.22
2023-01-01T10:19:16.487Z,22.01
2023-01-01T10:21:52.518Z,22.39
2023-01-01T10:24:38.452Z,21.53
2023-01-01T10:27:34.054Z,20.64
2023-01-01T10:30:26.434Z,22.89
2023-01-01T10:32:59.101Z,22.19
2023-01-01T10:35:40.967Z,22.91
2023-01-01T10:38:30.686Z,22.97
2023-01-01T10:41:20.606Z,24.73
2023-01-01T10:43:52.288Z,24.58
2023-01-01T10:46:31.560Z,25.80
2023-01-01T10:49:08.383Z,26.72
2023-01-01T10:51:49.667Z,26.54
2023-01-01T10:54:39.946Z,26.56
2023-01-01T10:57:31.484Z,26.82
2023-01-01T11:00:25.427Z,24.53
2023-01-01T11:03:26.611Z,24.96
2023-01-01T11:06:10.697Z,23.29
2023-01-01T11:08:48.933Z,23.34
2023-01-01T11:11:28.039Z,25.75
2023-01-01T11:14:02.873Z,25.31
2023-01-01T11:16:40.039Z,25.29
2023-01-01T11:19:24.899Z,25.64
2023-01-01T11:21:57.256Z,27.75
2023-01-01T11:24:35.409Z,28.21
2023-01-01T11:27:24.066Z,27.04
2023-01-01T11:30:28.563Z,28.41
2023-01-01T11:33:03.637Z,26.43
2023-01-01T11:35:50.298Z,27.07
2023-01-01T11:38:29.752Z,25.04
2023-01-01T11:41:07.164Z,26.78
2023-01-01T11:43:47.046Z,25.65
2023-01-01T11:46:24.694Z,25.90
2023-01-01T11:48:56.463Z,26.43
2023-01-01T11:51:33.803Z,24.27
2023-01-01T11:54:17.547Z,22.59
2023-01-01T11:56:55.960Z,20.76
2023-01-01T11:59:46.054Z,19.96
2023-01-01T12:02:38.231Z,20.57
2023-01-01T12:05:18.840Z,20.13
2023-01-01T12:07:52.365Z,20.51
2023-01-01T12:10:36.657Z,21.33
2023-01-01T12:13:23.050Z,20.44
2023-01-01T12:16:22.731Z,19.58
2023-01-01T12:19:07.119Z,20.02
2023-01-01T12:21:49.049Z,19.61
2023-01-01T12:24:35.614Z,19.99
2023-01-01T12:27:55.363Z,19.00
2023-01-01T12:30:38.842Z,18.59
2023-01-01T12:33:26.893Z,19.26
2023-01-01T12:36:07.655Z,19.15
2023-01-01T12:38:58.937Z,20.28
2023-01-01T12:41:30.519Z,20.98
2023-01-01T12:44:45.107Z,21.39
2023-01-01T12:47:36.751Z,22.18
2023-01-01T12:50:36.522Z,23.81
2023-01-01T12:53:29.235Z,23.43
2023-01-01T12:56:23.148Z,23.05
2023-01-01T12:59:03.688Z,23.07
2023-01-01T13:01:38.183Z,22.33
2023-01-01T13:04:20.752Z,22.45
2023-01-01T13:07:01.489Z,22.52
2023-01-01T13:09:41.052Z,24.79
2023-01-01T13:12:17.036Z,26.01
2023-01-01T13:14:49.421Z,24.96
2023-01-01T13:17:24.573Z,24.88
2023-01-01T13:20:21.393Z,23.01
2023-01-01T13:22:53.303Z,22.95
2023-01-01T13:25:25.418Z,24.06
2023-01-01T13:27:57.091Z,26.15
2023-01-01T13:30:37.849Z,25.96
2023-01-01T13:33:27.768Z,27.10
2023-01-01T13:36:24.993Z,24.95
2023-01-01T13:39:01.492Z,26.28
2023-01-01T13:41:44.116Z,26.87
2023-01-01T13:44:23.507Z,27.13
2023-01-01T13:47:01.268Z,25.17
2023-01-01T13:49:59.512Z,25.63
2023-01-01T13:52:37.162Z,24.83
2023-01-01T13:55:29.319Z,25.05
2023-01-01T13:58:38.637Z,25.19
2023-01-01T14:01:13.440Z,25.91
2023-01-01T14:03:51.639Z,22.98
2023-01-01T14:06:35.631Z,22.31
2023-01-01T14:09:13.467Z,22.39
2023-01-01T14:11:45.234Z,21.79
2023-01-01T14:14:27.505Z,22.94
2023-01-01T14:17:08.635Z,22.88
2023-01-01T14:19:42.320Z,22.83
2023-01-01T14:22:16.831Z,23.68
2023-01-01T14:24:48.625Z,22.60
2023-01-01T14:27:22.384Z,20.99
2023-01-01T14:29:55.071Z,19.17
2023-01-01T14:32:30.491Z,19.36
2023-01-01T14:35:02.714Z,18.19
2023-01-01T14:37:34.998Z,17.53
2023-01-01T14:40:15.080Z,16.62
2023-01-01T14:42:52.681Z,16.09
2023-01-01T14:45:24.950Z,16.00
2023-01-01T14:47:57.750Z,16.78
2023-01-01T14:50:34.623Z,16.21
2023-01-01T14:53:13.136Z,16.17
2023-01-01T14:55:47.958Z,15.90
2023-01-01T14:58:26.417Z,16.11
2023-01-01T15:01:22.687Z,16.92
2023-01-01T15:03:56.410Z,16.80
2023-01-01T15:06:32.801Z,17.23
2023-01-01T15:09:04.687Z,16.95
2023-01-01T15:11:36.751Z,16.72
2023-01-01T15:14:30.185Z,16.29
2023-01-01T15:17:06.281Z,16.83
2023-01-01T15:19:41.034Z,17.00
2023-01-01T15:22:32.499Z,16.43
2023-01-01T15:25:04.964Z,16.86
2023-01-01T15:27:37.248Z,16.63
2023-01-01T15:30:24.664Z,16.00
2023-01-01T15:33:09.127Z,16.33
2023-01-01T15:35:41.090Z,15.49
2023-01-01T15:38:26.447Z,15.28
2023-01-01T15:40:58.091Z,15.73
2023-01-01T15:43:30.996Z,16.23
2023-01-01T15:46:20.478Z,15.89
2023-01-01T15:48:53.307Z,16.15
2023-01-01T15:51:28.389Z,15.10
2023-01-01T15:54:03.302Z,15.26
2023-01-01T15:56:40.680Z,15.64
2023-01-01T15:59:29.040Z,15.30
2023-01-01T16:02:15.982Z,15.03
2023-01-01T16:04:50.463Z,15.27
2023-01-01T16:07:25.114Z,15.18
2023-01-01T16:09:57.961Z,14.61
2023-01-01T16:12:29.850Z,14.56
2023-01-01T16:15:01.506Z,14.24
2023-01-01T16:17:34.183Z,14.31
2023-01-01T16:20:06.498Z,14.39
2023-01-01T16:22:38.057Z,14.19
2023-01-01T16:25:22.103Z,14.32
2023-01-01T16:27:54.320Z,14.16
2023-01-01T16:30:26.284Z,14.49
2023-01-01T16:32:58.142Z,14.00
2023-01-01T16:35:29.813Z,14.22
2023-01-01T16:38:01.503Z,14.36
2023-01-01T16:40:37.914Z,14.36
2023-01-01T16:43:17.249Z,14.20
2023-01-01T16:45:48.847Z,14.38
2023-01-01T16:48:20.574Z,14.25
2023-01-01T16:50:52.322Z,14.37
2023-01-01T16:53:23.948Z,14.36
2023-01-01T16:55:55.587Z,14.21
2023-01-01T17:01:19.232Z,14.00
2023-01-01T17:03:51.249Z,13.91
2023-01-01T17:06:22.974Z,13.95
2023-01-01T17:08:54.715Z,13.90
2023-01-01T17:11:27.094Z,13.85
2023-01-01T17:13:58.707Z,13.74
2023-01-01T17:16:38.259Z,13.82
2023-01-01T17:19:15.073Z,13.71
2023-01-01T17:21:49.285Z,13.74
2023-01-01T17:24:21.493Z,14.08
2023-01-01T17:26:55.096Z,13.95
2023-01-01T17:29:26.737Z,13.79
2023-01-01T17:31:58.358Z,13.79
2023-01-01T17:34:30.047Z,13.92
2023-01-01T17:37:01.724Z,13.77
2023-01-01T17:39:33.402Z,13.73
2023-01-01T17:42:07.133Z,13.73
2023-01-01T17:44:38.967Z,13.63
2023-01-01T17:47:10.700Z,13.78
2023-01-01T17:49:42.869Z,13.77
2023-01-01T17:52:14.440Z,13.76
2023-01-01T17:54:46.025Z,13.77
2023-01-01T17:57:18.607Z,13.82
2023-01-01T17:59:50.234Z,13.70
2023-01-01T18:02:22.003Z,13.76
2023-01-01T18:04:53.796Z,13.77
2023-01-01T18:07:25.538Z,13.77
2023-01-01T18:09:57.193Z,13.50
2023-01-01T18:12:28.812Z,13.63
2023-01-01T18:15:00.419Z,13.48
2023-01-01T18:17:32.856Z,13.67
2023-01-01T18:20:06.632Z,13.46
2023-01-01T18:22:43.041Z,13.33
2023-01-01T18:25:15.142Z,13.32
2023-01-01T18:27:48.998Z,13.44
2023-01-01T18:30:26.085Z,13.18
2023-01-01T18:32:57.851Z,13.49
2023-01-01T18:35:29.480Z,13.43
2023-01-01T18:38:01.221Z,13.20
2023-01-01T18:40:38.326Z,13.63
2023-01-01T18:43:23.983Z,13.20
2023-01-01T18:45:57.327Z,13.24
2023-01-01T18:48:29.151Z,13.34
2023-01-01T18:51:00.803Z,13.31
2023-01-01T18:53:32.495Z,13.52
2023-01-01T18:56:14.811Z,13.42
2023-01-01T18:58:46.627Z,13.43
2023-01-01T19:01:22.842Z,12.98
2023-01-01T19:04:01.678Z,13.00
2023-01-01T19:06:33.897Z,13.46
2023-01-01T19:09:21.681Z,13.91
2023-01-01T19:11:54.424Z,14.01
2023-01-01T19:14:29.603Z,14.15
2023-01-01T19:17:17.923Z,14.29
2023-01-01T19:19:51.984Z,13.42
2023-01-01T19:22:31.252Z,13.84
2023-01-01T19:25:32.886Z,13.91
2023-01-01T19:28:16.845Z,13.32
2023-01-01T19:30:48.535Z,13.41
2023-01-01T19:33:20.238Z,13.43
2023-01-01T19:35:52.048Z,13.90
2023-01-01T19:38:24.198Z,14.08
2023-01-01T19:40:55.819Z,13.54
2023-01-01T19:43:27.839Z,13.00
2023-01-01T19:45:59.626Z,13.24
2023-01-01T19:48:31.649Z,13.33
2023-01-01T19:51:03.508Z,13.42
2023-01-01T19:53:35.189Z,12.68
2023-01-01T19:56:07.173Z,13.15
2023-01-01T19:58:39.949Z,12.19
2023-01-01T20:01:14.147Z,13.03
2023-01-01T20:03:55.310Z,12.81
2023-01-01T20:06:28.509Z,13.17
2023-01-01T20:09:00.398Z,13.18
2023-01-01T20:11:32.230Z,12.83
2023-01-01T20:14:04.047Z,13.15
2023-01-01T20:16:35.810Z,13.19
2023-01-01T20:19:08.010Z,12.72
2023-01-01T20:21:39.675Z,12.84
2023-01-01T20:24:11.310Z,13.06
2023-01-01T20:26:42.957Z,12.77
2023-01-01T20:29:14.597Z,12.60
2023-01-01T20:31:48.184Z,12.92
2023-01-01T20:34:20.272Z,12.74
2023-01-01T20:36:52.095Z,13.13
2023-01-01T20:39:23.994Z,13.19
2023-01-01T20:41:55.944Z,13.12
2023-01-01T20:44:27.691Z,13.25
2023-01-01T20:46:59.419Z,13.43
2023-01-01T20:49:31.053Z,13.23
2023-01-01T20:52:12.038Z,13.12
2023-01-01T20:54:43.663Z,12.78
2023-01-01T20:57:15.585Z,12.96
2023-01-01T20:59:47.134Z,13.03
2023-01-01T21:02:18.835Z,12.98
2023-01-01T21:04:50.546Z,12.94
2023-01-01T21:07:22.279Z,12.94
2023-01-01T21:09:54.424Z,12.65
2023-01-01T21:12:26.028Z,12.80
2023-01-01T21:14:58.346Z,12.15
2023-01-01T21:17:29.917Z,12.08
2023-01-01T21:20:04.298Z,12.22
2023-01-01T21:22:35.944Z,12.44
2023-01-01T21:25:49.967Z,12.24
2023-01-01T21:28:16.902Z,12.22
2023-01-01T21:30:55.483Z,12.17
2023-01-01T21:33:30.376Z,12.07
2023-01-01T21:36:33.771Z,12.37
2023-01-01T21:39:11.669Z,12.38
2023-01-01T21:41:43.244Z,12.01
2023-01-01T21:44:15.577Z,11.91
2023-01-01T21:46:47.201Z,11.71
2023-01-01T21:49:35.532Z,11.84
2023-01-01T21:52:19.389Z,11.74
2023-01-01T21:54:51.184Z,11.88
2023-01-01T21:57:24.965Z,11.91
2023-01-01T21:59:56.702Z,12.37
2023-01-01T22:02:32.891Z,12.24
2023-01-01T22:05:30.522Z,12.50
2023-01-01T22:08:23.175Z,12.46
2023-01-01T22:10:57.515Z,12.43
2023-01-01T22:13:29.157Z,12.40
2023-01-01T22:16:00.730Z,12.55
2023-01-01T22:18:39.205Z,12.26
2023-01-01T22:21:17.484Z,12.23
2023-01-01T22:23:53.010Z,12.18
2023-01-01T22:26:27.780Z,10.99
2023-01-01T22:29:15.261Z,11.55
2023-01-01T22:31:49.332Z,11.97
2023-01-01T22:34:22.516Z,12.22
2023-01-01T22:36:55.450Z,12.22
2023-01-01T22:39:34.816Z,12.30
2023-01-01T22:42:09.702Z,12.32
2023-01-01T22:44:41.721Z,12.10
2023-01-01T22:47:17.778Z,11.66
2023-01-01T22:49:51.048Z,11.91
2023-01-01T22:52:22.657Z,12.10
2023-01-01T22:54:54.385Z,12.08
2023-01-01T22:57:25.930Z,12.27
2023-01-01T22:59:58.250Z,12.41
2023-01-01T23:02:29.879Z,12.05
2023-01-01T23:05:01.568Z,12.17
2023-01-01T23:07:39.652Z,12.25
2023-01-01T23:10:14.821Z,12.41
2023-01-01T23:12:46.428Z,12.47
2023-01-01T23:15:18.216Z,12.54
2023-01-01T23:17:49.842Z,12.27
2023-01-01T23:20:22.642Z,12.37
2023-01-01T23:22:55.821Z,12.29
2023-01-01T23:25:28.136Z,12.48
2023-01-01T23:27:59.836Z,12.23
2023-01-01T23:30:32.978Z,12.55
2023-01-01T23:33:04.687Z,12.74
2023-01-01T23:35:36.958Z,12.33
2023-01-01T23:38:10.021Z,12.55
2023-01-01T23:40:41.641Z,12.33
2023-01-01T23:43:13.289Z,12.38
2023-01-01T23:45:46.123Z,12.61
2023-01-01T23:48:18.980Z,11.86
2023-01-01T23:50:50.939Z,11.83
2023-01-01T23:53:22.889Z,11.91
2023-01-01T23:55:54.643Z,12.30
2023-01-01T23:58:26.556Z,12.43
